Time;durP1;ratioP1;P1;durP2;ratioP2;P2;SDS_P1;SDS_P2;PMS_P1;PMS_P2;Temp;Humidity;BMP_temperature;BMP_pressure;BME280_temperature;BME280_humidity;BME280_pressure;Samples;Min_cycle;Max_cycle;Signal;HPM_P1;HPM_P2
2021/10/12 00:02:15;;;;;;;33.58;19.05;;;;;;;9.10;100.00;100090.53;6281343;28;20047;-82
2021/10/12 00:05:16;;;;;;;32.22;18.48;;;;;;;9.07;100.00;100085.47;6281235;28;20062;-82
2021/10/12 00:08:17;;;;;;;26.52;17.65;;;;;;;9.08;100.00;100080.19;6280861;28;20056;-82
2021/10/12 00:11:17;;;;;;;36.65;21.48;;;;;;;9.11;100.00;100081.78;6248125;28;20045;-82
2021/10/12 00:14:20;;;;;;;35.10;20.90;;;;;;;9.12;100.00;100078.25;6264560;28;20060;-82
2021/10/12 00:17:20;;;;;;;;;;;;;;;9.22;100.00;100071.59;6298138;28;20051;-82
2021/10/12 00:20:21;;;;;;;36.55;20.60;;;;;;;9.15;100.00;100065.06;6297629;28;20326;-82
2021/10/12 00:23:22;;;;;;;36.30;20.92;;;;;;;9.13;100.00;100064.31;6264105;28;20511;-88
2021/10/12 00:26:23;;;;;;;31.67;20.42;;;;;;;9.15;100.00;100066.84;6264038;28;20053;-87
2021/10/12 00:29:23;;;;;;;37.20;21.23;;;;;;;9.14;100.00;100059.94;6280788;28;20397;-88
2021/10/12 00:32:24;;;;;;;36.35;21.67;;;;;;;9.03;100.00;100056.16;6280591;28;20405;-88
2021/10/12 00:35:25;;;;;;;35.33;21.25;;;;;;;8.85;100.00;100050.22;6264220;28;20129;-88
2021/10/12 00:38:26;;;;;;;40.50;21.83;;;;;;;8.90;100.00;100054.31;6280662;28;20151;-88
2021/10/12 00:41:26;;;;;;;37.00;22.45;;;;;;;8.92;100.00;100057.69;6280476;28;20408;-88
2021/10/12 00:44:27;;;;;;;34.88;21.58;;;;;;;8.87;100.00;100047.50;6280585;28;20044;-88
2021/10/12 00:47:28;;;;;;;36.60;22.05;;;;;;;8.86;100.00;100048.44;6263755;28;20048;-88
2021/10/12 00:50:31;;;;;;;43.92;21.23;;;;;;;8.83;100.00;100041.66;6263556;28;20056;-87
2021/10/12 00:53:32;;;;;;;37.08;21.23;;;;;;;8.76;100.00;100024.66;6280251;28;20037;-87
2021/10/12 00:56:33;;;;;;;38.28;21.90;;;;;;;8.82;100.00;100026.94;6280303;28;20114;-87
2021/10/12 00:59:35;;;;;;;38.95;22.13;;;;;;;8.88;100.00;100030.97;6280119;28;20044;-87
2021/10/12 01:02:36;;;;;;;50.17;21.92;;;;;;;8.92;100.00;100022.09;6263782;28;20047;-87
2021/10/12 01:05:37;;;;;;;38.67;23.20;;;;;;;8.88;100.00;100013.59;6263276;28;20484;-87
2021/10/12 01:08:38;;;;;;;34.00;21.15;;;;;;;8.87;100.00;100005.88;6279985;28;20292;-88
2021/10/12 01:11:39;;;;;;;31.77;21.05;;;;;;;8.93;100.00;100005.53;6279810;28;20480;-87
2021/10/12 01:14:39;;;;;;;37.83;21.05;;;;;;;8.97;100.00;99999.22;6263229;28;20484;-87
2021/10/12 01:17:40;;;;;;;36.88;21.77;;;;;;;9.04;100.00;100007.56;6279772;28;20067;-86
2021/10/12 01:20:42;;;;;;;33.13;20.80;;;;;;;8.98;100.00;99992.28;6279642;28;20116;-88
2021/10/12 01:23:43;;;;;;;37.55;20.83;;;;;;;9.00;100.00;99995.66;6297358;28;20047;-82
2021/10/12 01:26:44;;;;;;;33.53;21.25;;;;;;;8.93;100.00;99986.47;6279044;28;20076;-82
2021/10/12 01:29:45;;;;;;;35.40;22.17;;;;;;;8.90;100.00;99986.66;6279575;28;20040;-82
2021/10/12 01:32:46;;;;;;;34.42;20.90;;;;;;;8.89;100.00;99991.00;6296805;28;20041;-82
2021/10/12 01:35:50;;;;;;;41.05;21.60;;;;;;;8.83;100.00;99986.16;6278993;28;20044;-82
2021/10/12 01:38:51;;;;;;;44.63;21.58;;;;;;;8.78;100.00;99993.38;6279650;28;20048;-82
2021/10/12 01:41:51;;;;;;;39.70;22.35;;;;;;;8.67;100.00;99986.16;6295828;28;20041;-82
2021/10/12 01:44:53;;;;;;;38.28;21.25;;;;;;;8.70;100.00;99985.16;6278946;28;20052;-81
2021/10/12 01:47:53;;;;;;;40.50;21.77;;;;;;;8.80;100.00;99984.56;6279236;28;20040;-81
2021/10/12 01:50:54;;;;;;;33.03;21.85;;;;;;;8.85;100.00;99981.69;6262618;28;20477;-81
2021/10/12 01:53:56;;;;;;;35.40;22.25;;;;;;;8.90;100.00;99981.47;6278887;28;20500;-81
2021/10/12 01:56:56;;;;;;;36.75;23.23;;;;;;;8.85;100.00;99971.28;6262625;28;20048;-81
2021/10/12 01:59:57;;;;;;;38.78;22.45;;;;;;;8.86;100.00;99972.97;6262498;28;20052;-81
2021/10/12 02:02:58;;;;;;;39.78;24.35;;;;;;;8.83;100.00;99966.19;6262294;28;20381;-80
2021/10/12 02:05:59;;;;;;;41.00;23.48;;;;;;;8.70;100.00;99964.34;6262066;28;20397;-81
2021/10/12 02:09:00;;;;;;;37.55;22.45;;;;;;;8.61;100.00;99960.47;6296659;28;20060;-81
2021/10/12 02:12:01;;;;;;;37.45;23.17;;;;;;;8.59;100.00;99957.97;6262249;28;20052;-81
2021/10/12 02:15:01;;;;;;;40.63;23.45;;;;;;;8.63;100.00;99956.88;6262245;28;20075;-81
2021/10/12 02:18:03;;;;;;;40.72;24.30;;;;;;;8.63;100.00;99951.66;6262432;28;20068;-81
2021/10/12 02:21:04;;;;;;;42.17;24.20;;;;;;;8.42;100.00;99932.00;6245710;28;20033;-81
2021/10/12 02:24:05;;;;;;;43.50;24.42;;;;;;;8.38;100.00;99948.66;6278578;28;20094;-80
2021/10/12 02:27:06;;;;;;;45.50;25.30;;;;;;;8.36;100.00;99940.97;6261833;28;20052;-81
2021/10/12 02:30:08;;;;;;;40.08;24.90;;;;;;;8.35;100.00;99941.88;6262053;28;20040;-80
2021/10/12 02:33:09;;;;;;;44.97;26.10;;;;;;;8.26;100.00;99948.41;6278541;28;20048;-80
2021/10/12 02:36:10;;;;;;;42.60;25.05;;;;;;;8.30;100.00;99941.28;6295174;28;20102;-80
2021/10/12 02:39:11;;;;;;;40.45;24.75;;;;;;;8.26;100.00;99927.63;6261953;28;20045;-80
2021/10/12 02:42:12;;;;;;;44.75;25.77;;;;;;;8.30;100.00;99933.50;6261910;28;20041;-80
2021/10/12 02:45:12;;;;;;;47.55;27.85;;;;;;;8.36;100.00;99929.72;6279624;28;20036;-80
2021/10/12 02:48:13;;;;;;;39.08;24.13;;;;;;;8.39;100.00;99934.75;6283170;28;20536;-80
2021/10/12 02:51:15;;;;;;;40.33;21.08;;;;;;;8.36;100.00;99933.16;6283014;28;20044;-80
2021/10/12 02:54:17;;;;;;;35.20;20.98;;;;;;;8.27;100.00;99929.28;6283062;28;20055;-80
2021/10/12 02:57:17;;;;;;;33.42;20.77;;;;;;;8.31;100.00;99932.56;6283033;28;20068;-80
2021/10/12 03:00:18;;;;;;;30.08;18.65;;;;;;;8.58;100.00;99935.47;6282860;28;20089;-80
2021/10/12 03:03:19;;;;;;;25.73;16.15;;;;;;;8.54;100.00;99939.16;6266131;28;20087;-80
2021/10/12 03:06:20;;;;;;;28.13;16.63;;;;;;;8.50;100.00;99934.19;6282774;28;20040;-79
2021/10/12 03:09:20;;;;;;;26.63;15.23;;;;;;;8.49;100.00;99920.38;6282747;28;20036;-79
2021/10/12 03:12:21;;;;;;;23.77;15.15;;;;;;;8.59;100.00;99931.94;6265965;28;20139;-79
2021/10/12 03:15:22;;;;;;;23.48;14.35;;;;;;;8.52;100.00;99914.97;6282497;28;20496;-80
2021/10/12 03:18:23;;;;;;;27.23;14.38;;;;;;;8.53;100.00;99934.06;6282528;28;20043;-79
2021/10/12 03:21:24;;;;;;;22.45;14.25;;;;;;;8.46;100.00;99936.97;6249636;28;20041;-85
2021/10/12 03:24:25;;;;;;;29.50;13.03;;;;;;;8.49;100.00;99925.56;6282556;28;20041;-85
2021/10/12 03:27:26;;;;;;;20.40;12.10;;;;;;;8.47;100.00;99920.44;6281876;28;20135;-86
2021/10/12 03:30:26;;;;;;;23.15;11.82;;;;;;;8.34;100.00;99922.00;6265679;28;20123;-86
2021/10/12 03:33:27;;;;;;;20.60;11.98;;;;;;;8.26;100.00;99919.81;6248942;28;20146;-86
2021/10/12 03:36:28;;;;;;;20.58;11.25;;;;;;;8.26;100.00;99925.00;6282183;28;20657;-86
2021/10/12 03:39:29;;;;;;;22.45;11.95;;;;;;;8.36;100.00;99916.72;6281902;28;20055;-87
2021/10/12 03:42:30;;;;;;;19.63;10.68;;;;;;;8.32;100.00;99915.19;6265353;28;20041;-86
2021/10/12 03:45:31;;;;;;;23.27;11.63;;;;;;;8.37;100.00;99911.44;6281754;28;20043;-86
2021/10/12 03:48:31;;;;;;;19.70;11.75;;;;;;;8.27;100.00;99913.69;6265225;28;20510;-80
2021/10/12 03:51:32;;;;;;;23.55;12.27;;;;;;;8.19;100.00;99913.25;6281840;28;20041;-86
2021/10/12 03:54:33;;;;;;;22.92;11.38;;;;;;;8.13;100.00;99905.78;6265030;28;20040;-85
2021/10/12 03:57:33;;;;;;;19.65;11.40;;;;;;;8.05;100.00;99901.00;6264416;28;20040;-86
2021/10/12 04:00:34;;;;;;;18.45;11.82;;;;;;;8.11;100.00;99906.78;6264971;28;20526;-86
2021/10/12 04:03:35;;;;;;;20.13;11.25;;;;;;;7.99;100.00;99903.06;6264987;28;20083;-85
2021/10/12 04:06:36;;;;;;;23.95;12.57;;;;;;;7.94;100.00;99900.72;6248185;28;20094;-86
2021/10/12 04:09:37;;;;;;;22.38;12.60;;;;;;;7.96;100.00;99901.47;6264910;28;20068;-86
2021/10/12 04:12:37;;;;;;;22.52;12.80;;;;;;;7.89;100.00;99905.34;6281241;28;20040;-86
2021/10/12 04:15:38;;;;;;;22.65;12.88;;;;;;;7.83;100.00;99910.84;6297651;28;20044;-86
2021/10/12 04:18:39;;;;;;;22.95;13.25;;;;;;;7.77;100.00;99898.19;6281138;28;20064;-87
2021/10/12 04:21:40;;;;;;;23.33;12.95;;;;;;;7.77;100.00;99895.59;6280933;28;20044;-86
2021/10/12 04:24:41;;;;;;;22.73;12.35;;;;;;;7.69;100.00;99890.78;6264253;28;20037;-86
2021/10/12 04:27:42;;;;;;;22.58;13.68;;;;;;;7.67;100.00;99893.44;6264207;28;20413;-86
2021/10/12 04:30:44;;;;;;;25.23;12.82;;;;;;;7.69;100.00;99895.97;6248160;28;20500;-87
2021/10/12 04:33:45;;;;;;;;;;;;;;;7.64;100.00;99898.81;6249329;28;20041;-86
2021/10/12 04:36:46;;;;;;;20.35;12.27;;;;;;;7.61;100.00;99896.34;6259794;28;20292;-86
2021/10/12 04:39:46;;;;;;;23.80;12.95;;;;;;;7.60;100.00;99899.88;6288994;28;20094;-87
2021/10/12 04:42:49;;;;;;;25.70;13.68;;;;;;;7.52;100.00;99891.66;6272506;28;20064;-87
2021/10/12 04:45:51;;;;;;;28.75;15.55;;;;;;;7.52;100.00;99894.25;6244224;28;20051;-89
2021/10/12 04:48:51;;;;;;;30.48;15.63;;;;;;;7.50;100.00;99890.88;6259300;28;20044;-86
2021/10/12 04:51:52;;;;;;;23.73;14.32;;;;;;;7.54;100.00;99897.59;6272447;28;20045;-86
2021/10/12 04:54:53;;;;;;;26.35;14.82;;;;;;;7.49;100.00;99898.75;6255415;28;20044;-87
2021/10/12 04:57:54;;;;;;;25.95;15.68;;;;;;;7.53;100.00;99892.47;6272076;28;20033;-85
2021/10/12 05:00:54;;;;;;;29.00;16.15;;;;;;;7.52;100.00;99894.25;6255479;28;20068;-86
2021/10/12 05:03:55;;;;;;;26.38;15.43;;;;;;;7.52;100.00;99889.06;6255281;28;20397;-78
2021/10/12 05:06:56;;;;;;;29.65;18.02;;;;;;;7.52;100.00;99890.81;6271527;28;20116;-79
2021/10/12 05:09:57;;;;;;;29.73;18.33;;;;;;;7.46;100.00;99897.97;6270341;28;20048;-78
2021/10/12 05:12:57;;;;;;;33.47;17.70;;;;;;;7.37;100.00;99880.28;6278292;28;20076;-80
2021/10/12 05:16:00;;;;;;;30.80;17.00;;;;;;;7.48;100.00;99890.13;6276735;28;20066;-80
2021/10/12 05:19:01;;;;;;;28.38;16.67;;;;;;;7.50;100.00;99893.47;6262943;28;20489;-80
2021/10/12 05:22:02;;;;;;;33.10;19.73;;;;;;;7.46;100.00;99889.38;6291525;28;20040;-79
2021/10/12 05:25:03;;;;;;;29.23;18.45;;;;;;;7.45;100.00;99891.13;6279340;28;20037;-79
2021/10/12 05:28:04;;;;;;;28.85;17.40;;;;;;;7.47;100.00;99897.09;6314127;28;20052;-79
2021/10/12 05:31:05;;;;;;;33.00;18.35;;;;;;;7.47;100.00;99893.63;6263478;28;20043;-79
2021/10/12 05:34:07;;;;;;;31.65;18.83;;;;;;;7.45;100.00;99898.06;6280551;28;20046;-78
2021/10/12 05:37:08;;;;;;;42.35;21.45;;;;;;;7.48;100.00;99897.91;6303766;28;20052;-80
2021/10/12 05:40:09;;;;;;;38.67;23.85;;;;;;;7.48;100.00;99903.09;6279111;28;20404;-80
2021/10/12 05:43:10;;;;;;;44.47;23.38;;;;;;;7.51;100.00;99896.91;6279052;28;20041;-80
2021/10/12 05:46:11;;;;;;;30.33;18.85;;;;;;;7.50;100.00;99895.25;6262173;28;20063;-79
2021/10/12 05:49:12;;;;;;;29.27;17.35;;;;;;;7.52;100.00;99904.63;6262158;28;20123;-80
2021/10/12 05:52:16;;;;;;;33.05;17.80;;;;;;;7.60;100.00;99904.25;6278850;28;20089;-80
2021/10/12 05:55:25;;;;;;;34.08;18.23;;;;;;;7.60;100.00;99907.69;6279133;28;20054;-80
2021/10/12 05:58:48;;;;;;;36.42;18.65;;;;;;;7.64;100.00;99911.78;6279889;28;20051;-80
2021/10/12 06:01:49;;;;;;;29.85;17.33;;;;;;;7.75;100.00;99905.22;6281578;28;20060;-80
2021/10/12 06:04:50;;;;;;;30.38;17.67;;;;;;;7.81;100.00;99915.28;6278543;28;20532;-80
2021/10/12 06:07:50;;;;;;;35.70;18.88;;;;;;;7.82;100.00;99911.75;6295045;28;20045;-80
2021/10/12 06:10:51;;;;;;;37.78;18.52;;;;;;;7.86;100.00;99918.47;6278619;28;20373;-79
2021/10/12 06:13:54;;;;;;;38.78;19.30;;;;;;;7.88;100.00;99909.66;6295075;28;20094;-79
2021/10/12 06:16:55;;;;;;;36.00;19.83;;;;;;;7.91;100.00;99908.69;6295387;28;20083;-80
2021/10/12 06:19:56;;;;;;;38.58;19.45;;;;;;;7.87;100.00;99915.81;6279683;28;20041;-80
2021/10/12 06:22:57;;;;;;;36.65;18.88;;;;;;;7.93;100.00;99914.66;6283386;28;20432;-80
2021/10/12 06:25:58;;;;;;;31.33;18.55;;;;;;;7.93;100.00;99908.59;6283614;28;20041;-80
2021/10/12 06:28:59;;;;;;;32.17;18.55;;;;;;;7.97;100.00;99916.16;6308055;28;20036;-80
2021/10/12 06:32:00;;;;;;;32.80;18.90;;;;;;;8.05;100.00;99915.75;6291525;28;20093;-80
2021/10/12 06:35:00;;;;;;;33.53;18.48;;;;;;;8.10;100.00;99915.53;6307979;28;20127;-80
2021/10/12 06:38:03;;;;;;;37.03;20.10;;;;;;;8.15;100.00;99922.13;6308019;28;20537;-80
2021/10/12 06:41:04;;;;;;;42.35;19.90;;;;;;;8.22;100.00;99914.88;6307937;28;20040;-80
2021/10/12 06:44:05;;;;;;;41.42;20.45;;;;;;;8.27;100.00;99921.47;6291381;28;20047;-80
2021/10/12 06:47:06;;;;;;;37.65;20.67;;;;;;;8.31;100.00;99927.38;6307597;28;20051;-80
2021/10/12 06:50:07;;;;;;;35.75;19.80;;;;;;;8.38;100.00;99925.25;6274584;28;20040;-80
2021/10/12 06:53:08;;;;;;;39.08;20.65;;;;;;;8.45;100.00;99935.28;6274604;28;20122;-80
2021/10/12 06:56:09;;;;;;;32.00;20.20;;;;;;;8.47;100.00;99932.63;6290755;28;20061;-79
2021/10/12 06:59:11;;;;;;;39.40;21.77;;;;;;;8.56;100.00;99929.50;6307550;28;20331;-80
2021/10/12 07:02:13;;;;;;;46.75;21.73;;;;;;;8.59;100.00;99923.31;6290983;28;20326;-80
2021/10/12 07:05:16;;;;;;;40.33;20.85;;;;;;;8.69;100.00;99937.50;6274185;28;20415;-80
2021/10/12 07:08:16;;;;;;;35.30;20.52;;;;;;;8.71;100.00;99935.66;6290517;28;20516;-80
2021/10/12 07:11:17;;;;;;;36.08;21.05;;;;;;;8.75;100.00;99934.56;6290671;28;20044;-80
2021/10/12 07:14:18;;;;;;;40.58;21.30;;;;;;;8.81;100.00;99936.81;6290537;28;20117;-80
2021/10/12 07:17:19;;;;;;;38.88;21.50;;;;;;;8.93;100.00;99937.03;6273852;28;20047;-80
2021/10/12 07:20:20;;;;;;;36.33;20.90;;;;;;;8.93;100.00;99935.28;6273976;28;20040;-80
2021/10/12 07:23:21;;;;;;;34.58;20.83;;;;;;;9.05;100.00;99941.56;6290343;28;20143;-81
2021/10/12 07:26:21;;;;;;;38.28;22.90;;;;;;;9.11;100.00;99940.38;6306499;28;20134;-80
2021/10/12 07:29:22;;;;;;;34.03;21.20;;;;;;;9.15;100.00;99944.50;6290149;28;20044;-80
2021/10/12 07:32:23;;;;;;;37.47;21.17;;;;;;;9.19;100.00;99946.00;6272652;28;20048;-80
2021/10/12 07:35:24;;;;;;;38.17;20.73;;;;;;;9.20;100.00;99950.25;6289874;28;20453;-80
2021/10/12 07:38:25;;;;;;;39.17;20.55;;;;;;;9.10;100.00;99939.56;6290123;28;20043;-80
2021/10/12 07:41:27;;;;;;;37.30;20.88;;;;;;;9.11;100.00;99946.41;6306477;28;20040;-80
2021/10/12 07:44:28;;;;;;;37.47;20.67;;;;;;;9.18;100.00;99950.38;6273452;28;20044;-80
2021/10/12 07:47:28;;;;;;;39.90;20.58;;;;;;;9.23;100.00;99950.09;6272939;28;20377;-80
2021/10/12 07:50:29;;;;;;;35.60;20.52;;;;;;;9.24;100.00;99951.75;6273196;28;20040;-80
2021/10/12 07:53:33;;;;;;;34.30;20.77;;;;;;;9.28;100.00;99946.28;6306288;28;20507;-80
2021/10/12 07:56:36;;;;;;;40.35;21.60;;;;;;;9.34;100.00;99931.25;6289792;28;20377;-80
2021/10/12 07:59:37;;;;;;;45.75;22.38;;;;;;;9.38;100.00;99936.19;6273846;28;20119;-80
2021/10/12 08:02:38;;;;;;;44.10;24.45;;;;;;;9.49;100.00;99935.56;6289411;28;20399;-80
2021/10/12 08:05:40;;;;;;;45.53;23.75;;;;;;;9.63;100.00;99929.53;6272587;28;20048;-80
2021/10/12 08:08:40;;;;;;;47.05;22.75;;;;;;;9.72;100.00;99934.22;6289235;28;20480;-80
2021/10/12 08:11:41;;;;;;;37.08;21.65;;;;;;;9.89;100.00;99941.84;6289228;28;20036;-80
2021/10/12 08:14:46;;;;;;;38.22;22.70;;;;;;;9.95;100.00;99934.63;6272520;28;20043;-80
2021/10/12 08:17:47;;;;;;;41.20;22.80;;;;;;;10.00;97.85;99942.97;6289538;28;20098;-81
2021/10/12 08:20:48;;;;;;;42.05;22.63;;;;;;;9.99;99.32;99931.72;6289027;28;20044;-80
2021/10/12 08:23:49;;;;;;;43.17;22.35;;;;;;;10.05;99.60;99940.94;6272677;28;20094;-80
2021/10/12 08:26:50;;;;;;;43.25;22.85;;;;;;;10.18;99.08;99936.66;6312586;28;20526;-82
2021/10/12 08:29:51;;;;;;;37.53;20.90;;;;;;;10.14;93.54;99923.91;6307352;28;20461;-79
2021/10/12 08:32:51;;;;;;;37.08;22.13;;;;;;;10.26;100.00;99929.19;6312126;28;20040;-78
2021/10/12 08:35:52;;;;;;;39.13;22.50;;;;;;;10.38;96.86;99932.84;6292828;28;20047;-80
2021/10/12 08:38:56;;;;;;;34.47;21.52;;;;;;;10.49;93.34;99932.19;6313739;28;20036;-80
2021/10/12 08:42:25;;;;;;;41.10;21.58;;;;;;;10.54;92.56;99934.50;6319165;28;20416;-82
2021/10/12 08:45:26;;;;;;;42.97;23.42;;;;;;;10.78;91.91;99934.72;6343598;28;20039;-79
2021/10/12 08:48:31;;;;;;;40.42;22.73;;;;;;;10.78;89.50;99930.34;6297286;28;20043;-93
2021/10/12 08:51:32;;;;;;;39.28;22.42;;;;;;;10.92;90.61;99937.28;6316706;28;20036;-93
2021/10/12 08:54:33;;;;;;;44.67;23.38;;;;;;;11.00;91.50;99921.13;6332977;28;20081;-93
2021/10/12 08:57:39;;;;;;;43.28;23.40;;;;;;;10.93;87.32;99925.06;6299046;28;20044;-93
2021/10/12 09:00:40;;;;;;;40.03;22.02;;;;;;;11.02;85.95;99929.72;6316330;28;20043;-88
2021/10/12 09:06:54;;;;;;;41.45;22.80;;;;;;;11.00;86.00;99919.34;6331205;28;20493;-88
2021/10/12 09:09:56;;;;;;;41.63;21.48;;;;;;;11.07;85.38;99909.34;6331305;28;20104;-87
2021/10/12 09:13:06;;;;;;;42.25;22.52;;;;;;;11.20;84.75;99912.84;6348940;28;20035;-91
2021/10/12 09:16:09;;;;;;;44.70;23.67;;;;;;;11.36;83.46;99909.19;6316052;28;20043;-92
2021/10/12 09:19:15;;;;;;;42.35;21.20;;;;;;;11.42;84.02;99909.63;6332249;28;20070;-91
2021/10/12 09:22:15;;;;;;;43.90;21.70;;;;;;;11.63;83.12;99909.97;6315189;28;20035;-87
2021/10/12 09:25:17;;;;;;;33.55;17.85;;;;;;;11.60;77.88;99904.94;6297269;28;20040;-89
2021/10/12 09:28:23;;;;;;;36.00;19.10;;;;;;;11.61;78.93;99905.78;6313014;28;20507;-91
2021/10/12 09:31:50;;;;;;;31.83;16.98;;;;;;;11.46;77.41;99899.81;6330343;28;20050;-87
2021/10/12 09:35:02;;;;;;;33.53;16.85;;;;;;;11.63;76.06;99902.13;6327023;28;20051;-90
2021/10/12 09:38:11;;;;;;;26.70;14.35;;;;;;;11.76;75.05;99896.09;6330723;28;20134;-89
2021/10/12 09:41:15;;;;;;;26.27;14.93;;;;;;;11.99;75.53;99892.72;6330981;28;20035;-89
2021/10/12 09:44:18;;;;;;;29.17;15.57;;;;;;;12.30;74.13;99895.81;6314027;28;20048;-87
2021/10/12 09:47:19;;;;;;;21.23;11.50;;;;;;;12.35;69.32;99893.69;6348258;28;20039;-89
2021/10/12 09:50:29;;;;;;;29.98;14.98;;;;;;;12.39;71.88;99887.31;6330238;28;20040;-87
2021/10/12 09:53:31;;;;;;;26.15;14.35;;;;;;;12.47;70.48;99892.00;6312498;28;20040;-88
2021/10/12 09:56:32;;;;;;;27.90;14.52;;;;;;;12.47;71.11;99892.81;6328504;28;20054;-82
2021/10/12 09:59:34;;;;;;;24.20;13.43;;;;;;;12.30;68.10;99895.81;6295635;28;20059;-81
2021/10/12 10:02:37;;;;;;;;;;;;;;;12.15;70.78;99887.28;6347718;28;20377;-85
2021/10/12 10:05:38;;;;;;;28.50;14.35;;;;;;;12.49;71.81;99882.25;6329057;28;19927;-84
2021/10/12 10:08:46;;;;;;;24.73;13.70;;;;;;;13.06;68.75;99875.50;6328889;28;20445;-84
2021/10/12 10:11:48;;;;;;;27.17;14.13;;;;;;;13.21;65.59;99874.34;6329056;28;20055;-85
2021/10/12 10:14:49;;;;;;;28.30;15.52;;;;;;;12.96;69.81;99875.34;6313611;28;20075;-92
2021/10/12 10:17:50;;;;;;;22.20;13.30;;;;;;;12.83;66.71;99864.13;6284000;28;20469;-87
2021/10/12 10:20:53;;;;;;;22.83;12.18;;;;;;;12.83;65.71;99861.50;6314265;28;20036;-91
2021/10/12 10:24:02;;;;;;;20.75;12.25;;;;;;;13.35;64.33;99848.94;6314603;28;20043;-88
2021/10/12 10:27:03;;;;;;;24.35;13.35;;;;;;;13.36;64.27;99850.59;6331556;28;20130;-93
2021/10/12 10:30:22;;;;;;;25.00;12.43;;;;;;;13.61;62.83;99852.19;6296867;28;20046;-91
2021/10/12 10:33:32;;;;;;;18.83;10.95;;;;;;;13.64;61.50;99847.53;6329933;28;20040;-89
2021/10/12 10:36:33;;;;;;;17.70;11.35;;;;;;;13.79;62.02;99842.06;6330232;28;20399;-89
2021/10/12 10:39:36;;;;;;;21.55;11.65;;;;;;;13.13;63.76;99819.09;6292037;28;20036;-91
2021/10/12 10:42:42;;;;;;;21.15;10.23;;;;;;;13.24;64.76;99831.38;6305076;28;20484;-89
2021/10/12 10:45:48;;;;;;;23.40;10.65;;;;;;;12.96;63.94;99830.00;6304705;28;20442;-87
2021/10/12 10:48:49;;;;;;;19.25;10.35;;;;;;;13.19;62.63;99831.72;6304064;28;20044;-90
2021/10/12 10:52:02;;;;;;;16.65;8.80;;;;;;;12.88;64.63;99834.00;6270859;28;20492;-90
2021/10/12 10:55:04;;;;;;;14.18;8.82;;;;;;;13.70;62.44;99828.72;6305027;28;20040;-90
2021/10/12 10:58:19;;;;;;;14.68;8.25;;;;;;;13.41;61.45;99827.53;6288315;28;20127;-87
2021/10/12 11:01:36;;;;;;;15.00;8.93;;;;;;;13.30;63.21;99821.31;6303931;28;20044;-88
2021/10/12 11:04:46;;;;;;;13.60;7.93;;;;;;;13.15;64.30;99818.97;6303513;28;20056;-89
2021/10/12 11:07:47;;;;;;;14.82;7.28;;;;;;;13.16;61.56;99810.16;6316146;28;20506;-86
2021/10/12 11:11:09;;;;;;;13.30;8.63;;;;;;;13.43;61.33;99818.59;6266359;28;20060;-90
2021/10/12 11:14:09;;;;;;;12.70;7.55;;;;;;;13.36;62.20;99808.69;6303882;28;20068;-84
2021/10/12 11:17:11;;;;;;;11.57;6.72;;;;;;;13.06;63.32;99802.19;6351301;28;20051;-89
2021/10/12 11:20:14;;;;;;;12.83;6.83;;;;;;;13.16;61.32;99800.53;6333667;28;20039;-88
2021/10/12 11:23:32;;;;;;;15.63;6.88;;;;;;;13.56;61.69;99799.28;6317531;28;20036;-87
2021/10/12 11:26:33;;;;;;;12.45;6.82;;;;;;;13.97;59.29;99803.09;6333072;28;20407;-89
2021/10/12 11:29:34;;;;;;;12.27;6.85;;;;;;;14.02;59.53;99798.28;6299401;28;20047;-89
2021/10/12 11:32:34;;;;;;;13.23;7.22;;;;;;;14.33;59.58;99788.81;6332786;28;20063;-88
2021/10/12 11:35:38;;;;;;;12.98;7.35;;;;;;;13.66;59.48;99801.06;6299394;28;20053;-90
2021/10/12 11:38:44;;;;;;;12.57;7.15;;;;;;;13.87;61.15;99802.97;6332239;28;20036;-88
2021/10/12 11:41:44;;;;;;;12.85;6.68;;;;;;;13.66;60.33;99798.44;6332162;28;20043;-88
2021/10/12 11:44:51;;;;;;;11.68;7.68;;;;;;;13.50;61.72;99788.31;6299113;28;20432;-90
2021/10/12 11:47:52;;;;;;;11.73;7.47;;;;;;;13.47;59.79;99787.75;6315193;28;20048;-88
2021/10/12 11:50:52;;;;;;;15.85;7.15;;;;;;;13.19;62.58;99792.41;6298731;28;20043;-87
2021/10/12 11:53:56;;;;;;;11.98;6.70;;;;;;;12.95;62.82;99789.03;6315172;28;20122;-87
2021/10/12 11:56:57;;;;;;;14.13;7.47;;;;;;;12.94;61.89;99788.22;6315120;28;20047;-89
2021/10/12 11:59:57;;;;;;;28.02;19.95;;;;;;;12.90;63.03;99784.97;6314768;28;20046;-88
2021/10/12 12:02:58;;;;;;;18.88;9.57;;;;;;;12.98;63.03;99786.22;6331948;28;20044;-88
2021/10/12 12:05:59;;;;;;;13.73;7.53;;;;;;;12.99;63.70;99782.63;6298304;28;20090;-87
2021/10/12 12:09:07;;;;;;;14.82;6.90;;;;;;;13.07;63.89;99788.13;6331486;28;20096;-86
2021/10/12 12:12:08;;;;;;;17.95;8.45;;;;;;;12.82;64.17;99778.66;6331637;28;20195;-88
2021/10/12 12:15:09;;;;;;;15.23;7.70;;;;;;;12.72;62.33;99773.25;6298178;28;20403;-88
2021/10/12 12:18:15;;;;;;;16.83;8.93;;;;;;;12.68;64.85;99775.28;6313919;28;20107;-88
2021/10/12 12:21:32;;;;;;;16.15;7.78;;;;;;;12.79;62.60;99774.50;6331175;28;20040;-87
2021/10/12 12:24:33;;;;;;;17.55;7.95;;;;;;;12.78;63.46;99771.97;6331208;28;20035;-91
2021/10/12 12:27:54;;;;;;;14.45;8.10;;;;;;;12.69;63.63;99769.09;6314623;28;20051;-91
2021/10/12 12:30:55;;;;;;;18.30;8.60;;;;;;;12.86;64.82;99764.38;6331865;28;20509;-87
2021/10/12 12:33:56;;;;;;;16.27;9.18;;;;;;;12.70;64.96;99762.06;6314717;28;20046;-88
2021/10/12 12:36:58;;;;;;;23.10;10.30;;;;;;;12.50;64.21;99753.94;6331181;28;20063;-89
2021/10/12 12:39:59;;;;;;;19.38;10.02;;;;;;;12.50;65.34;99767.00;6313915;28;20040;-86
2021/10/12 12:43:24;;;;;;;16.65;10.10;;;;;;;12.50;64.74;99769.63;6314052;28;20040;-86
2021/10/12 12:46:25;;;;;;;21.30;9.95;;;;;;;12.49;65.07;99770.56;6320655;28;20051;-89
2021/10/12 12:49:28;;;;;;;17.50;9.70;;;;;;;12.61;65.42;99768.81;6297386;28;20051;-86
2021/10/12 12:52:32;;;;;;;17.02;9.75;;;;;;;12.68;64.60;99756.97;6330811;28;20036;-90
2021/10/12 12:55:43;;;;;;;16.52;9.60;;;;;;;12.63;65.31;99768.72;6331383;28;20044;-90
2021/10/12 12:58:48;;;;;;;17.70;9.98;;;;;;;12.56;65.88;99757.88;6315285;28;20138;-94
2021/10/12 13:01:51;;;;;;;19.77;10.95;;;;;;;12.67;66.11;99757.06;6315424;28;20065;-90
2021/10/12 13:04:52;;;;;;;22.45;10.75;;;;;;;12.53;64.23;99755.47;6331481;28;20039;-88
2021/10/12 13:07:54;;;;;;;19.52;11.13;;;;;;;12.52;65.22;99748.59;6298119;28;20046;-92
2021/10/12 13:10:55;;;;;;;23.17;11.27;;;;;;;12.43;65.88;99751.88;6313755;28;20044;-89
2021/10/12 13:13:56;;;;;;;19.27;10.65;;;;;;;12.30;64.71;99747.53;6331140;28;20122;-88
2021/10/12 13:16:58;;;;;;;20.35;10.25;;;;;;;12.27;64.64;99739.06;6296739;28;20043;-90
2021/10/12 13:19:59;;;;;;;18.00;10.57;;;;;;;12.43;65.72;99738.78;6297115;28;20067;-89
2021/10/12 13:23:00;;;;;;;27.23;12.73;;;;;;;12.40;64.66;99736.41;6312948;28;20073;-87
2021/10/12 13:26:00;;;;;;;22.10;10.82;;;;;;;12.46;65.95;99725.50;6295892;28;20479;-87
2021/10/12 13:29:01;;;;;;;22.95;11.32;;;;;;;12.56;69.26;99733.47;6312389;28;20450;-87
2021/10/12 13:32:06;;;;;;;14.48;8.85;;;;;;;12.60;64.38;99727.06;6312199;28;20403;-87
2021/10/12 13:35:07;;;;;;;27.95;14.85;;;;;;;12.77;64.84;99733.69;6313038;28;20403;-88
2021/10/12 13:38:08;;;;;;;20.95;9.93;;;;;;;12.76;64.79;99732.00;6312800;28;20052;-88
2021/10/12 13:41:12;;;;;;;14.98;9.25;;;;;;;12.64;64.12;99731.13;6297234;28;20031;-88
2021/10/12 13:44:13;;;;;;;19.35;10.77;;;;;;;12.83;64.27;99734.03;6295845;28;20387;-88
2021/10/12 13:47:13;;;;;;;15.98;9.52;;;;;;;12.80;63.96;99718.53;6296430;28;20047;-90
2021/10/12 13:50:15;;;;;;;17.45;8.95;;;;;;;12.78;65.08;99738.78;6312698;28;20044;-90
2021/10/12 13:53:16;;;;;;;17.33;9.70;;;;;;;12.80;65.03;99717.72;6312816;28;20475;-88
2021/10/12 13:56:17;;;;;;;25.40;12.07;;;;;;;12.97;63.27;99730.38;6312758;28;20272;-88
2021/10/12 13:59:17;;;;;;;16.92;9.93;;;;;;;13.14;64.12;99731.72;6328965;28;20039;-86
2021/10/12 14:02:18;;;;;;;15.18;10.05;;;;;;;12.94;62.36;99727.97;6295671;28;20043;-88
2021/10/12 14:05:19;;;;;;;17.63;9.73;;;;;;;12.93;62.16;99723.72;6286422;28;20044;-88